Летающим высоко и низко: ПОГОДА В АЭРОПОРТАХ

Datasource: http://meteocentre.com/cgi-bin/get_taf?STN=UUEE
    за последний срок по а/п  (сейчас 0:05 мск)
UUEE на Метеоцентре                GFS-прогноз по UUEE                   Погода сейчас
UUEE: TAF UUEE 182302Z 1900/1924 12002MPS 3100 -SN BR BKN011 TXM11/1912Z

TNM16/1906Z TEMPO 1900/1909 1000 -SN BR SCT004=

TAF UUEE 182302Z 1900/1924 12002MPS 3100 -SN BR BKN011 TXM11/1912Z

TNM16/1906Z

TEMPO 1900/1909 1000 -SN BR SCT004=

TAF UUEE 182302Z 1900/1924 12002MPS 3100 -SN BR BKN011 TXM11/1912Z

TNM16/1906Z

TEMPO 1900/1909 1000 -SN BR SCT004=

Авиапрогноз Москва (Шереметьево), составлен 19 декабря 3:02 мск:
с 3:00 (19 декабря) до 3:00 (20 декабря) ветер 120° (ВЮВ) 2 м/c; видимость 3100 м; слаб. снег; дымка; облачн. значительная 330 м; [TXM11/1912Z] [TNM16/1906Z]
Временами с 3:00 (19 декабря) до 12:00 (19 декабря) видимость 1000 м; слаб. снег; дымка; облачн. разбросанная 120 м;

Красным подкрашены опасные явления погоды, синим - предпосылки к ним, читайте комментарии. На данный момент охвачены Россия и Украина. Погода обновляется примерно раз в полчаса, вскоре после наблюдений. Прогноз обновляется примерно раз в час. Для обзорности глядите также фактическую погоду вокруг..., по трехчасовым срокам. Это тестовая версия, любые замечания приветствуются
GeoFAQ - гео-информационные технологии Летающие Болотоходцы

GeoFAQ: по просьбе сообщества Летающие болотоходцы
по рекомендациям Метеоцентра